createdAt,value
2018-09-27T00:00:17.417Z,1020.78
2018-09-27T00:01:17.482Z,1020.80
2018-09-27T00:02:17.478Z,1020.82
2018-09-27T00:03:17.462Z,1020.83
2018-09-27T00:04:17.435Z,1020.80
2018-09-27T00:05:17.366Z,1020.82
2018-09-27T00:06:17.445Z,1020.81
2018-09-27T00:07:17.495Z,1020.83
2018-09-27T00:08:17.429Z,1020.79
2018-09-27T00:09:17.504Z,1020.80
2018-09-27T00:10:17.385Z,1020.78
2018-09-27T00:11:17.498Z,1020.76
2018-09-27T00:12:17.437Z,1020.74
2018-09-27T00:13:17.466Z,1020.74
2018-09-27T00:14:17.599Z,1020.75
2018-09-27T00:15:17.385Z,1020.71
2018-09-27T00:16:17.468Z,1020.72
2018-09-27T00:17:17.451Z,1020.73
2018-09-27T00:18:17.401Z,1020.77
2018-09-27T00:19:17.373Z,1020.74
2018-09-27T00:20:17.329Z,1020.76
2018-09-27T00:21:17.411Z,1020.78
2018-09-27T00:22:17.393Z,1020.80
2018-09-27T00:23:17.454Z,1020.77
2018-09-27T00:24:17.473Z,1020.80
2018-09-27T00:25:17.460Z,1020.80
2018-09-27T00:26:17.374Z,1020.80
2018-09-27T00:27:17.407Z,1020.79
2018-09-27T00:28:17.419Z,1020.75
2018-09-27T00:29:17.470Z,1020.74
2018-09-27T00:30:17.472Z,1020.75
2018-09-27T00:31:17.407Z,1020.72
2018-09-27T00:32:17.476Z,1020.73
2018-09-27T00:33:17.474Z,1020.74
2018-09-27T00:34:17.402Z,1020.73
2018-09-27T00:35:17.406Z,1020.72
2018-09-27T00:36:17.419Z,1020.68
2018-09-27T00:37:17.482Z,1020.66
2018-09-27T00:38:17.410Z,1020.66
2018-09-27T00:39:17.481Z,1020.64
2018-09-27T00:40:17.457Z,1020.62
2018-09-27T00:41:17.488Z,1020.67
2018-09-27T00:42:17.428Z,1020.70
2018-09-27T00:43:17.392Z,1020.74
2018-09-27T00:44:17.408Z,1020.78
2018-09-27T00:45:17.454Z,1020.76
2018-09-27T00:46:17.432Z,1020.76
2018-09-27T00:47:17.546Z,1020.70
2018-09-27T00:48:17.529Z,1020.70
2018-09-27T00:49:17.509Z,1020.73
2018-09-27T00:50:17.497Z,1020.72
2018-09-27T00:51:17.501Z,1020.69
2018-09-27T00:52:17.502Z,1020.65
2018-09-27T00:53:17.530Z,1020.70
2018-09-27T00:54:17.500Z,1020.69
2018-09-27T00:55:17.430Z,1020.73
2018-09-27T00:56:17.460Z,1020.68
2018-09-27T00:57:17.532Z,1020.74
2018-09-27T00:58:17.432Z,1020.71
2018-09-27T00:59:17.515Z,1020.73
2018-09-27T01:00:17.502Z,1020.73
2018-09-27T01:01:17.443Z,1020.75
2018-09-27T01:02:17.506Z,1020.69
2018-09-27T01:03:17.500Z,1020.69
2018-09-27T01:04:17.436Z,1020.72
2018-09-27T01:05:17.518Z,1020.74
2018-09-27T01:06:17.436Z,1020.74
2018-09-27T01:07:17.516Z,1020.72
2018-09-27T01:08:17.473Z,1020.72
2018-09-27T01:09:17.516Z,1020.73
2018-09-27T01:10:17.511Z,1020.75
2018-09-27T01:11:17.401Z,1020.72
2018-09-27T01:12:17.464Z,1020.71
2018-09-27T01:13:17.427Z,1020.64
2018-09-27T01:14:17.500Z,1020.66
2018-09-27T01:15:17.490Z,1020.63
2018-09-27T01:16:17.441Z,1020.67
2018-09-27T01:17:17.463Z,1020.66
2018-09-27T01:18:17.475Z,1020.64
2018-09-27T01:19:17.381Z,1020.62
2018-09-27T01:20:17.434Z,1020.61
2018-09-27T01:21:17.544Z,1020.62
2018-09-27T01:22:17.440Z,1020.56
2018-09-27T01:23:17.518Z,1020.57
2018-09-27T01:24:17.536Z,1020.55
2018-09-27T01:25:17.421Z,1020.58
2018-09-27T01:26:17.548Z,1020.55
2018-09-27T01:27:17.443Z,1020.56
2018-09-27T01:28:17.515Z,1020.53
2018-09-27T01:29:17.495Z,1020.54
2018-09-27T01:30:17.544Z,1020.54
2018-09-27T01:31:17.484Z,1020.49
2018-09-27T01:32:17.543Z,1020.52
2018-09-27T01:33:17.541Z,1020.49
2018-09-27T01:34:17.524Z,1020.46
2018-09-27T01:35:17.501Z,1020.46
2018-09-27T01:36:17.492Z,1020.43
2018-09-27T01:37:17.585Z,1020.43
2018-09-27T01:38:17.592Z,1020.44
2018-09-27T01:39:17.432Z,1020.44
2018-09-27T01:40:17.558Z,1020.46
2018-09-27T01:41:17.509Z,1020.41
2018-09-27T01:42:17.503Z,1020.42
2018-09-27T01:43:17.505Z,1020.39
2018-09-27T01:44:17.521Z,1020.36
2018-09-27T01:45:17.509Z,1020.34
2018-09-27T01:46:17.538Z,1020.33
2018-09-27T01:47:17.508Z,1020.36
2018-09-27T01:48:17.508Z,1020.37
2018-09-27T01:49:17.432Z,1020.35
2018-09-27T01:50:17.436Z,1020.35
2018-09-27T01:51:17.536Z,1020.34
2018-09-27T01:52:17.454Z,1020.33
2018-09-27T01:53:17.436Z,1020.29
2018-09-27T01:54:17.477Z,1020.23
2018-09-27T01:55:17.443Z,1020.22
2018-09-27T01:56:17.479Z,1020.17
2018-09-27T01:57:17.521Z,1020.12
2018-09-27T01:58:17.443Z,1020.15
2018-09-27T01:59:17.505Z,1020.16
2018-09-27T02:00:17.535Z,1020.18
2018-09-27T02:01:17.447Z,1020.22
2018-09-27T02:02:17.543Z,1020.24
2018-09-27T02:03:17.466Z,1020.25
2018-09-27T02:04:17.468Z,1020.23
2018-09-27T02:05:17.539Z,1020.20
2018-09-27T02:06:17.472Z,1020.18
2018-09-27T02:07:17.472Z,1020.14
2018-09-27T02:08:17.543Z,1020.13
2018-09-27T02:09:17.544Z,1020.13
2018-09-27T02:10:17.607Z,1020.08
2018-09-27T02:11:17.570Z,1020.10
2018-09-27T02:12:17.525Z,1020.11
2018-09-27T02:13:17.584Z,1020.09
2018-09-27T02:14:17.531Z,1020.11
2018-09-27T02:15:17.622Z,1020.06
2018-09-27T02:16:17.471Z,1020.08
2018-09-27T02:17:17.591Z,1020.06
2018-09-27T02:18:17.573Z,1020.08
2018-09-27T02:19:17.554Z,1020.11
2018-09-27T02:20:17.478Z,1020.05
2018-09-27T02:21:17.554Z,1020.06
2018-09-27T02:22:17.523Z,1020.02
2018-09-27T02:23:17.555Z,1020.02
2018-09-27T02:24:17.482Z,1020.01
2018-09-27T02:25:17.557Z,1020.03
2018-09-27T02:26:17.479Z,1019.99
2018-09-27T02:27:17.486Z,1019.95
2018-09-27T02:28:17.558Z,1019.94
2018-09-27T02:29:17.561Z,1019.94
2018-09-27T02:30:17.493Z,1019.91
2018-09-27T02:31:17.568Z,1019.89
2018-09-27T02:32:17.566Z,1019.85
2018-09-27T02:33:17.607Z,1019.82
2018-09-27T02:34:17.493Z,1019.85
2018-09-27T02:35:17.493Z,1019.85
2018-09-27T02:36:17.570Z,1019.83
2018-09-27T02:37:17.568Z,1019.85
2018-09-27T02:38:17.493Z,1019.86
2018-09-27T02:39:17.495Z,1019.87
2018-09-27T02:40:17.471Z,1019.85
2018-09-27T02:41:17.531Z,1019.82
2018-09-27T02:42:17.540Z,1019.84
2018-09-27T02:43:17.563Z,1019.85
2018-09-27T02:44:17.485Z,1019.86
2018-09-27T02:45:17.476Z,1019.86
2018-09-27T02:46:17.559Z,1019.84
2018-09-27T02:47:17.499Z,1019.83
2018-09-27T02:48:17.489Z,1019.84
2018-09-27T02:49:17.574Z,1019.82
2018-09-27T02:50:17.557Z,1019.78
2018-09-27T02:51:17.557Z,1019.76
2018-09-27T02:52:17.605Z,1019.76
2018-09-27T02:53:17.562Z,1019.79
2018-09-27T02:54:17.585Z,1019.78
2018-09-27T02:55:17.585Z,1019.76
2018-09-27T02:56:17.530Z,1019.76
2018-09-27T02:57:17.562Z,1019.78
2018-09-27T02:58:17.615Z,1019.83
2018-09-27T02:59:17.618Z,1019.77
2018-09-27T03:00:17.601Z,1019.76
2018-09-27T03:01:17.563Z,1019.73
2018-09-27T03:02:17.609Z,1019.71
2018-09-27T03:03:17.523Z,1019.73
2018-09-27T03:04:17.607Z,1019.69
2018-09-27T03:05:17.526Z,1019.73
2018-09-27T03:06:17.529Z,1019.73
2018-09-27T03:07:17.597Z,1019.71
2018-09-27T03:08:17.619Z,1019.72
2018-09-27T03:09:17.600Z,1019.74
2018-09-27T03:10:17.514Z,1019.70
2018-09-27T03:11:17.621Z,1019.72
2018-09-27T03:12:17.522Z,1019.72
2018-09-27T03:13:17.572Z,1019.67
2018-09-27T03:14:17.628Z,1019.65
2018-09-27T03:15:17.627Z,1019.65
2018-09-27T03:16:17.518Z,1019.64
2018-09-27T03:17:17.640Z,1019.68
2018-09-27T03:18:17.643Z,1019.66
2018-09-27T03:19:17.572Z,1019.60
2018-09-27T03:20:17.646Z,1019.59
2018-09-27T03:21:17.509Z,1019.62
2018-09-27T03:22:17.610Z,1019.56
2018-09-27T03:23:17.568Z,1019.55
2018-09-27T03:24:17.538Z,1019.53
2018-09-27T03:25:17.609Z,1019.58
2018-09-27T03:26:17.585Z,1019.55
2018-09-27T03:27:17.644Z,1019.58
2018-09-27T03:28:17.575Z,1019.55
2018-09-27T03:29:17.613Z,1019.48
2018-09-27T03:30:17.604Z,1019.56
2018-09-27T03:31:17.549Z,1019.51
2018-09-27T03:32:17.513Z,1019.47
2018-09-27T03:33:17.613Z,1019.52
2018-09-27T03:34:17.582Z,1019.48
2018-09-27T03:35:17.613Z,1019.53
2018-09-27T03:36:17.535Z,1019.56
2018-09-27T03:37:17.584Z,1019.57
2018-09-27T03:38:17.557Z,1019.57
2018-09-27T03:39:17.600Z,1019.56
2018-09-27T03:40:17.682Z,1019.56
2018-09-27T03:41:17.616Z,1019.55
2018-09-27T03:42:17.538Z,1019.54
2018-09-27T03:43:17.553Z,1019.55
2018-09-27T03:44:17.615Z,1019.55
2018-09-27T03:45:17.554Z,1019.59
2018-09-27T03:46:17.620Z,1019.54
2018-09-27T03:47:17.550Z,1019.55
2018-09-27T03:48:17.618Z,1019.55
2018-09-27T03:49:17.503Z,1019.54
2018-09-27T03:50:17.653Z,1019.54
2018-09-27T03:51:17.654Z,1019.55
2018-09-27T03:52:17.567Z,1019.55
2018-09-27T03:53:17.553Z,1019.57
2018-09-27T03:54:17.543Z,1019.54
2018-09-27T03:55:17.572Z,1019.55
2018-09-27T03:56:17.550Z,1019.57
2018-09-27T03:57:17.629Z,1019.58
2018-09-27T03:58:17.658Z,1019.56
2018-09-27T03:59:17.666Z,1019.56
2018-09-27T04:00:17.574Z,1019.50
2018-09-27T04:01:17.553Z,1019.57
2018-09-27T04:02:17.614Z,1019.52
2018-09-27T04:03:17.710Z,1019.54
2018-09-27T04:04:17.635Z,1019.51
2018-09-27T04:05:17.571Z,1019.53
2018-09-27T04:06:17.675Z,1019.52
2018-09-27T04:07:17.608Z,1019.60
2018-09-27T04:08:17.645Z,1019.53
2018-09-27T04:09:17.667Z,1019.56
2018-09-27T04:10:17.647Z,1019.56
2018-09-27T04:11:17.666Z,1019.55
2018-09-27T04:12:17.638Z,1019.57
2018-09-27T04:13:17.602Z,1019.54
2018-09-27T04:14:17.776Z,1019.56
2018-09-27T04:15:17.620Z,1019.54
2018-09-27T04:16:17.612Z,1019.51
2018-09-27T04:17:17.585Z,1019.54
2018-09-27T04:18:17.623Z,1019.50
2018-09-27T04:19:17.712Z,1019.50
2018-09-27T04:20:17.583Z,1019.50
2018-09-27T04:21:17.544Z,1019.50
2018-09-27T04:22:17.583Z,1019.50
2018-09-27T04:23:17.577Z,1019.48
2018-09-27T04:24:17.645Z,1019.50
2018-09-27T04:25:17.605Z,1019.52
2018-09-27T04:26:17.593Z,1019.50
2018-09-27T04:27:17.593Z,1019.51
2018-09-27T04:28:17.606Z,1019.50
2018-09-27T04:29:17.711Z,1019.54
2018-09-27T04:30:17.656Z,1019.55
2018-09-27T04:31:17.618Z,1019.55
2018-09-27T04:32:17.656Z,1019.54
2018-09-27T04:33:17.627Z,1019.55
2018-09-27T04:34:17.641Z,1019.52
2018-09-27T04:35:17.575Z,1019.53
2018-09-27T04:36:17.636Z,1019.55
2018-09-27T04:37:17.624Z,1019.50
2018-09-27T04:38:17.559Z,1019.50
2018-09-27T04:39:17.581Z,1019.55
2018-09-27T04:40:17.554Z,1019.55
2018-09-27T04:41:17.533Z,1019.54
2018-09-27T04:42:17.562Z,1019.59
2018-09-27T04:43:17.597Z,1019.54
2018-09-27T04:44:17.646Z,1019.57
2018-09-27T04:45:17.614Z,1019.53
2018-09-27T04:46:17.649Z,1019.51
2018-09-27T04:47:17.535Z,1019.52
2018-09-27T04:48:17.647Z,1019.52
2018-09-27T04:49:17.641Z,1019.52
2018-09-27T04:50:17.699Z,1019.50
2018-09-27T04:51:17.643Z,1019.52
2018-09-27T04:52:17.611Z,1019.53
2018-09-27T04:53:17.632Z,1019.54
2018-09-27T04:54:17.781Z,1019.57
2018-09-27T04:55:17.703Z,1019.53
2018-09-27T04:56:17.670Z,1019.54
2018-09-27T04:57:17.639Z,1019.55
2018-09-27T04:58:17.704Z,1019.56
2018-09-27T04:59:17.613Z,1019.54
2018-09-27T05:00:17.673Z,1019.58
2018-09-27T05:01:17.715Z,1019.59
2018-09-27T05:02:17.704Z,1019.58
2018-09-27T05:03:17.678Z,1019.61
2018-09-27T05:04:17.621Z,1019.61
2018-09-27T05:05:17.679Z,1019.59
2018-09-27T05:06:17.720Z,1019.58
2018-09-27T05:07:17.711Z,1019.60
2018-09-27T05:08:17.621Z,1019.61
2018-09-27T05:09:17.683Z,1019.63
2018-09-27T05:10:17.603Z,1019.58
2018-09-27T05:11:17.604Z,1019.56
2018-09-27T05:12:17.678Z,1019.54
2018-09-27T05:13:17.680Z,1019.57
2018-09-27T05:14:17.606Z,1019.60
2018-09-27T05:15:17.612Z,1019.53
2018-09-27T05:16:17.608Z,1019.53
2018-09-27T05:17:17.680Z,1019.51
2018-09-27T05:18:17.607Z,1019.52
2018-09-27T05:19:17.702Z,1019.52
2018-09-27T05:20:17.721Z,1019.52
2018-09-27T05:21:17.653Z,1019.53
2018-09-27T05:22:17.611Z,1019.52
2018-09-27T05:23:17.722Z,1019.54
2018-09-27T05:24:17.713Z,1019.53
2018-09-27T05:25:17.634Z,1019.49
2018-09-27T05:26:17.750Z,1019.53
2018-09-27T05:27:17.681Z,1019.50
2018-09-27T05:28:17.660Z,1019.48
2018-09-27T05:29:17.708Z,1019.43
2018-09-27T05:30:17.626Z,1019.44
2018-09-27T05:31:17.516Z,1019.43
2018-09-27T05:32:17.573Z,1019.48
2018-09-27T05:33:17.515Z,1019.48
2018-09-27T05:34:17.620Z,1019.49
2018-09-27T05:35:17.581Z,1019.45
2018-09-27T05:36:17.635Z,1019.45
2018-09-27T05:37:17.578Z,1019.50
2018-09-27T05:38:17.584Z,1019.46
2018-09-27T05:39:17.625Z,1019.45
2018-09-27T05:40:17.679Z,1019.47
2018-09-27T05:41:17.724Z,1019.48
2018-09-27T05:42:17.682Z,1019.46
2018-09-27T05:43:17.625Z,1019.49
2018-09-27T05:44:17.737Z,1019.44
2018-09-27T05:45:17.704Z,1019.42
2018-09-27T05:46:17.742Z,1019.45
2018-09-27T05:47:17.626Z,1019.46
2018-09-27T05:48:17.729Z,1019.48
2018-09-27T05:49:17.678Z,1019.47
2018-09-27T05:50:17.711Z,1019.50
2018-09-27T05:51:17.642Z,1019.50
2018-09-27T05:52:17.644Z,1019.54
2018-09-27T05:53:17.648Z,1019.49
2018-09-27T05:54:17.646Z,1019.51
2018-09-27T05:55:17.711Z,1019.49
2018-09-27T05:56:17.719Z,1019.50
2018-09-27T05:57:17.716Z,1019.51
2018-09-27T05:58:17.657Z,1019.51
2018-09-27T05:59:17.678Z,1019.50
2018-09-27T06:00:17.718Z,1019.53
2018-09-27T06:01:17.621Z,1019.55
2018-09-27T06:02:17.678Z,1019.54
2018-09-27T06:03:17.646Z,1019.54
2018-09-27T06:04:17.639Z,1019.55
2018-09-27T06:05:17.715Z,1019.53
2018-09-27T06:06:17.721Z,1019.58
2018-09-27T06:07:17.625Z,1019.53
2018-09-27T06:08:17.718Z,1019.56
2018-09-27T06:09:17.711Z,1019.56
2018-09-27T06:10:17.652Z,1019.58
2018-09-27T06:11:17.676Z,1019.55
2018-09-27T06:12:17.733Z,1019.54
2018-09-27T06:13:17.660Z,1019.54
2018-09-27T06:14:17.734Z,1019.49
2018-09-27T06:15:17.729Z,1019.49
2018-09-27T06:16:17.660Z,1019.51
2018-09-27T06:17:17.661Z,1019.54
2018-09-27T06:18:17.734Z,1019.51
2018-09-27T06:19:17.668Z,1019.52
2018-09-27T06:21:17.618Z,1019.56
2018-09-27T06:22:17.669Z,1019.59
2018-09-27T06:23:17.660Z,1019.54
2018-09-27T06:24:17.720Z,1019.59
2018-09-27T06:25:17.688Z,1019.63
2018-09-27T06:26:17.681Z,1019.61
2018-09-27T06:27:17.693Z,1019.63
2018-09-27T06:28:17.719Z,1019.62
2018-09-27T06:29:17.664Z,1019.62
2018-09-27T06:30:17.665Z,1019.66
2018-09-27T06:31:17.656Z,1019.60
2018-09-27T06:32:17.779Z,1019.58
2018-09-27T06:33:17.740Z,1019.60
2018-09-27T06:34:17.825Z,1019.60
2018-09-27T06:35:17.700Z,1019.58
2018-09-27T06:36:17.765Z,1019.60
2018-09-27T06:37:17.741Z,1019.58
2018-09-27T06:38:17.726Z,1019.57
2018-09-27T06:39:17.663Z,1019.56
2018-09-27T06:40:17.684Z,1019.60
2018-09-27T06:41:17.789Z,1019.63
2018-09-27T06:42:17.710Z,1019.63
2018-09-27T06:43:17.675Z,1019.64
2018-09-27T06:44:17.739Z,1019.61
2018-09-27T06:45:17.747Z,1019.65
2018-09-27T06:46:17.687Z,1019.68
2018-09-27T06:47:17.751Z,1019.67
2018-09-27T06:48:17.701Z,1019.66
2018-09-27T06:49:17.753Z,1019.68
2018-09-27T06:50:17.745Z,1019.69
2018-09-27T06:51:17.720Z,1019.73
2018-09-27T06:52:17.791Z,1019.72
2018-09-27T06:53:17.717Z,1019.72
2018-09-27T06:54:17.772Z,1019.70
2018-09-27T06:55:17.966Z,1019.68
2018-09-27T06:56:17.838Z,1019.65
2018-09-27T06:57:17.733Z,1019.70
2018-09-27T06:58:17.712Z,1019.68
2018-09-27T06:59:17.780Z,1019.64
2018-09-27T07:00:17.776Z,1019.63
2018-09-27T07:01:17.782Z,1019.58
2018-09-27T07:02:17.756Z,1019.63
2018-09-27T07:03:17.757Z,1019.59
2018-09-27T07:04:17.765Z,1019.60
2018-09-27T07:05:17.765Z,1019.57
2018-09-27T07:06:17.790Z,1019.60
2018-09-27T07:07:17.761Z,1019.59
2018-09-27T07:08:17.716Z,1019.55
2018-09-27T07:09:17.687Z,1019.56
2018-09-27T07:10:17.783Z,1019.60
2018-09-27T07:11:17.642Z,1019.64
2018-09-27T07:12:17.816Z,1019.61
2018-09-27T07:13:17.765Z,1019.62
2018-09-27T07:14:17.691Z,1019.63
2018-09-27T07:15:17.695Z,1019.62
2018-09-27T07:16:17.763Z,1019.63
2018-09-27T07:17:17.762Z,1019.63
2018-09-27T07:18:17.724Z,1019.58
2018-09-27T07:19:17.645Z,1019.60
2018-09-27T07:20:17.717Z,1019.62
2018-09-27T07:21:17.811Z,1019.59
2018-09-27T07:22:17.802Z,1019.63
2018-09-27T07:23:17.777Z,1019.67
2018-09-27T07:24:17.698Z,1019.65
2018-09-27T07:25:17.872Z,1019.64
2018-09-27T07:26:17.760Z,1019.66
2018-09-27T07:27:17.855Z,1019.63
2018-09-27T07:28:17.700Z,1019.61
2018-09-27T07:29:17.812Z,1019.60
2018-09-27T07:30:17.780Z,1019.55
2018-09-27T07:31:17.700Z,1019.57
2018-09-27T07:32:17.747Z,1019.61
2018-09-27T07:33:17.781Z,1019.55
2018-09-27T07:34:17.793Z,1019.55
2018-09-27T07:35:17.710Z,1019.51
2018-09-27T07:36:17.828Z,1019.51
2018-09-27T07:37:17.743Z,1019.51
2018-09-27T07:38:17.756Z,1019.50
2018-09-27T07:39:17.817Z,1019.45
2018-09-27T07:40:17.749Z,1019.47
2018-09-27T07:41:17.744Z,1019.51
2018-09-27T07:42:17.707Z,1019.50
2018-09-27T07:43:17.714Z,1019.51
2018-09-27T07:44:17.707Z,1019.53
2018-09-27T07:45:17.748Z,1019.48
2018-09-27T07:46:17.788Z,1019.47
2018-09-27T07:47:17.823Z,1019.45
2018-09-27T07:48:17.814Z,1019.48
2018-09-27T07:49:17.698Z,1019.42
2018-09-27T07:50:17.766Z,1019.41
2018-09-27T07:51:17.735Z,1019.41
2018-09-27T07:52:17.857Z,1019.41
2018-09-27T07:53:17.730Z,1019.36
2018-09-27T07:54:17.856Z,1019.43
2018-09-27T07:55:17.729Z,1019.41
2018-09-27T07:56:17.802Z,1019.39
2018-09-27T07:57:17.770Z,1019.43
2018-09-27T07:58:17.821Z,1019.37
2018-09-27T07:59:17.746Z,1019.36
2018-09-27T08:00:17.742Z,1019.35
2018-09-27T08:01:17.785Z,1019.37
2018-09-27T08:02:17.726Z,1019.32
2018-09-27T08:03:17.743Z,1019.34
2018-09-27T08:04:17.899Z,1019.38
2018-09-27T08:05:17.766Z,1019.34
2018-09-27T08:06:17.765Z,1019.35
2018-09-27T08:07:17.740Z,1019.32
2018-09-27T08:08:17.729Z,1019.36
2018-09-27T08:09:17.839Z,1019.32
2018-09-27T08:10:17.828Z,1019.29
2018-09-27T08:11:17.913Z,1019.29
2018-09-27T08:12:17.875Z,1019.27
2018-09-27T08:13:17.809Z,1019.28
2018-09-27T08:14:17.812Z,1019.31
2018-09-27T08:15:17.814Z,1019.31
2018-09-27T08:16:17.741Z,1019.28
2018-09-27T08:17:17.816Z,1019.26
2018-09-27T08:18:17.811Z,1019.26
2018-09-27T08:19:17.813Z,1019.27
2018-09-27T08:20:17.759Z,1019.31
2018-09-27T08:21:17.836Z,1019.29
2018-09-27T08:22:17.833Z,1019.27
2018-09-27T08:23:17.788Z,1019.26
2018-09-27T08:24:17.892Z,1019.27
2018-09-27T08:25:17.836Z,1019.26
2018-09-27T08:26:17.864Z,1019.25
2018-09-27T08:27:17.838Z,1019.23
2018-09-27T08:28:17.806Z,1019.21
2018-09-27T08:29:17.857Z,1019.26
2018-09-27T08:30:17.757Z,1019.23
2018-09-27T08:31:17.886Z,1019.20
2018-09-27T08:32:17.765Z,1019.15
2018-09-27T08:33:17.820Z,1019.19
2018-09-27T08:34:17.841Z,1019.11
2018-09-27T08:35:17.762Z,1019.11
2018-09-27T08:36:17.768Z,1019.13
2018-09-27T08:37:17.944Z,1019.07
2018-09-27T08:38:17.808Z,1019.16
2018-09-27T08:39:17.829Z,1019.12
2018-09-27T08:40:17.837Z,1019.10
2018-09-27T08:41:17.784Z,1019.10
2018-09-27T08:42:17.756Z,1019.09
2018-09-27T08:43:17.724Z,1019.07
2018-09-27T08:44:17.731Z,1019.04
2018-09-27T08:45:18.143Z,1018.96
2018-09-27T08:46:17.726Z,1018.99
2018-09-27T08:47:17.730Z,1018.96
2018-09-27T08:48:17.819Z,1018.94
2018-09-27T08:49:17.815Z,1018.95
2018-09-27T08:50:17.763Z,1018.95
2018-09-27T08:51:17.858Z,1018.93
2018-09-27T08:52:17.867Z,1018.91
2018-09-27T08:53:17.793Z,1018.88
2018-09-27T08:54:17.810Z,1018.90
2018-09-27T08:55:17.826Z,1018.89
2018-09-27T08:56:17.794Z,1018.82
2018-09-27T08:57:17.841Z,1018.79
2018-09-27T08:58:17.746Z,1018.82
2018-09-27T08:59:17.745Z,1018.79
2018-09-27T09:00:17.900Z,1018.78
2018-09-27T09:01:17.876Z,1018.79
2018-09-27T09:02:17.787Z,1018.72
2018-09-27T09:03:17.851Z,1018.68
2018-09-27T09:04:17.797Z,1018.65
2018-09-27T09:05:17.870Z,1018.63
2018-09-27T09:06:17.874Z,1018.59
2018-09-27T09:07:17.872Z,1018.56
2018-09-27T09:08:17.786Z,1018.54
2018-09-27T09:09:17.826Z,1018.52
2018-09-27T09:10:17.809Z,1018.47
2018-09-27T09:11:17.905Z,1018.51
2018-09-27T09:12:17.924Z,1018.50
2018-09-27T09:13:17.881Z,1018.48
2018-09-27T09:14:17.881Z,1018.49
2018-09-27T09:15:17.859Z,1018.46
2018-09-27T09:16:17.807Z,1018.41
2018-09-27T09:17:17.820Z,1018.42
2018-09-27T09:18:17.889Z,1018.41
2018-09-27T09:19:17.857Z,1018.40
2018-09-27T09:20:17.775Z,1018.37
2018-09-27T09:21:17.855Z,1018.42
2018-09-27T09:22:17.895Z,1018.41
2018-09-27T09:23:17.900Z,1018.37
2018-09-27T09:24:17.824Z,1018.37
2018-09-27T09:25:17.841Z,1018.36
2018-09-27T09:26:17.860Z,1018.35
2018-09-27T09:27:17.829Z,1018.37
2018-09-27T09:28:17.886Z,1018.36
2018-09-27T09:29:17.782Z,1018.31
2018-09-27T09:30:17.967Z,1018.25
2018-09-27T09:31:17.768Z,1018.25
2018-09-27T09:32:17.694Z,1018.18
2018-09-27T09:33:17.820Z,1018.18
2018-09-27T09:34:17.877Z,1018.15
2018-09-27T09:35:17.818Z,1018.16
2018-09-27T09:36:17.758Z,1018.13
2018-09-27T09:37:17.819Z,1018.11
2018-09-27T09:38:17.738Z,1018.10
2018-09-27T09:39:17.787Z,1018.09
2018-09-27T09:40:17.697Z,1018.08
2018-09-27T09:41:17.824Z,1018.09
2018-09-27T09:42:17.857Z,1018.04
2018-09-27T09:43:17.865Z,1018.07
2018-09-27T09:44:17.794Z,1018.00
2018-09-27T09:45:17.794Z,1017.97
2018-09-27T09:46:17.839Z,1017.98
2018-09-27T09:47:17.751Z,1017.93
2018-09-27T09:48:17.879Z,1017.87
2018-09-27T09:49:17.821Z,1017.90
2018-09-27T09:50:17.770Z,1017.89
2018-09-27T09:51:17.812Z,1017.86
2018-09-27T09:52:17.808Z,1017.82
2018-09-27T09:53:17.883Z,1017.82
2018-09-27T09:54:17.816Z,1017.80
2018-09-27T09:55:17.880Z,1017.78
2018-09-27T09:56:17.836Z,1017.83
2018-09-27T09:57:17.819Z,1017.81
2018-09-27T09:58:17.821Z,1017.78
2018-09-27T09:59:17.835Z,1017.72
2018-09-27T10:00:17.965Z,1017.73
2018-09-27T10:01:17.886Z,1017.68
2018-09-27T10:02:17.811Z,1017.67
2018-09-27T10:03:17.824Z,1017.63
2018-09-27T10:04:17.887Z,1017.62
2018-09-27T10:05:17.860Z,1017.59
2018-09-27T10:06:17.888Z,1017.60
2018-09-27T10:07:17.888Z,1017.52
2018-09-27T10:08:17.825Z,1017.57
2018-09-27T10:09:17.826Z,1017.56
2018-09-27T10:10:17.926Z,1017.54
2018-09-27T10:11:17.888Z,1017.57
2018-09-27T10:12:17.830Z,1017.57
2018-09-27T10:13:17.835Z,1017.56
2018-09-27T10:14:17.877Z,1017.59
2018-09-27T10:15:17.819Z,1017.57
2018-09-27T10:16:17.838Z,1017.53
2018-09-27T10:17:17.837Z,1017.56
2018-09-27T10:18:17.937Z,1017.56
2018-09-27T10:19:17.850Z,1017.55
2018-09-27T10:20:17.899Z,1017.54
2018-09-27T10:21:17.884Z,1017.56
2018-09-27T10:22:17.825Z,1017.54
2018-09-27T10:23:17.893Z,1017.54
2018-09-27T10:24:17.861Z,1017.46
2018-09-27T10:25:17.886Z,1017.43
2018-09-27T10:26:17.779Z,1017.41
2018-09-27T10:27:17.929Z,1017.39
2018-09-27T10:28:17.893Z,1017.33
2018-09-27T10:29:17.841Z,1017.31
2018-09-27T10:30:17.869Z,1017.27
2018-09-27T10:31:17.870Z,1017.26
2018-09-27T10:32:17.880Z,1017.26
2018-09-27T10:33:17.949Z,1017.20
2018-09-27T10:34:18.009Z,1017.17
2018-09-27T10:35:17.814Z,1017.12
2018-09-27T10:36:17.870Z,1017.08
2018-09-27T10:37:17.891Z,1017.09
2018-09-27T10:38:17.871Z,1017.06
2018-09-27T10:39:17.855Z,1017.07
2018-09-27T10:40:17.866Z,1017.04
2018-09-27T10:41:17.848Z,1017.07
2018-09-27T10:42:17.848Z,1017.08
2018-09-27T10:43:17.927Z,1017.05
2018-09-27T10:44:17.853Z,1017.05
2018-09-27T10:45:17.865Z,1016.97
2018-09-27T10:46:17.863Z,1016.98
2018-09-27T10:47:17.917Z,1017.01
2018-09-27T10:48:17.924Z,1016.98
2018-09-27T10:49:17.851Z,1016.97
2018-09-27T10:50:17.927Z,1016.94
2018-09-27T10:51:17.901Z,1016.97
2018-09-27T10:52:17.826Z,1016.99
2018-09-27T10:53:17.857Z,1016.96
2018-09-27T10:54:17.926Z,1016.89
2018-09-27T10:55:17.843Z,1016.87
2018-09-27T10:56:17.920Z,1016.85
2018-09-27T10:57:18.054Z,1016.85
2018-09-27T10:58:17.903Z,1016.85
2018-09-27T10:59:17.959Z,1016.85
2018-09-27T11:00:17.879Z,1016.90
2018-09-27T11:01:17.883Z,1016.85
2018-09-27T11:02:17.883Z,1016.84
2018-09-27T11:03:17.918Z,1016.84
2018-09-27T11:04:17.830Z,1016.82
2018-09-27T11:05:17.819Z,1016.80
2018-09-27T11:06:17.922Z,1016.78
2018-09-27T11:07:17.826Z,1016.77
2018-09-27T11:08:17.958Z,1016.76
2018-09-27T11:09:17.923Z,1016.74
2018-09-27T11:10:17.863Z,1016.69
2018-09-27T11:11:17.882Z,1016.71
2018-09-27T11:12:17.925Z,1016.70
2018-09-27T11:13:17.846Z,1016.67
2018-09-27T11:14:17.928Z,1016.65
2018-09-27T11:15:17.837Z,1016.64
2018-09-27T11:16:17.854Z,1016.62
2018-09-27T11:17:17.937Z,1016.63
2018-09-27T11:18:17.931Z,1016.62
2018-09-27T11:19:18.000Z,1016.57
2018-09-27T11:20:17.893Z,1016.57
2018-09-27T11:21:17.942Z,1016.50
2018-09-27T11:22:17.946Z,1016.48
2018-09-27T11:23:17.886Z,1016.43
2018-09-27T11:24:17.884Z,1016.44
2018-09-27T11:25:17.948Z,1016.42
2018-09-27T11:26:17.912Z,1016.38
2018-09-27T11:27:17.879Z,1016.37
2018-09-27T11:28:17.954Z,1016.34
2018-09-27T11:29:17.955Z,1016.31
2018-09-27T11:30:17.919Z,1016.31
2018-09-27T11:31:17.981Z,1016.32
2018-09-27T11:32:17.929Z,1016.31
2018-09-27T11:33:18.013Z,1016.24
2018-09-27T11:34:17.929Z,1016.24
2018-09-27T11:35:17.977Z,1016.23
2018-09-27T11:36:18.017Z,1016.20
2018-09-27T11:37:17.988Z,1016.19
2018-09-27T11:38:17.956Z,1016.17
2018-09-27T11:39:17.886Z,1016.11
2018-09-27T11:40:17.873Z,1016.12
2018-09-27T11:41:17.910Z,1016.04
2018-09-27T11:42:17.960Z,1016.02
2018-09-27T11:43:17.815Z,1015.97
2018-09-27T11:44:17.905Z,1015.91
2018-09-27T11:45:17.909Z,1015.88
2018-09-27T11:46:17.912Z,1015.88
2018-09-27T11:47:17.865Z,1015.86
2018-09-27T11:48:17.877Z,1015.85
2018-09-27T11:49:17.911Z,1015.83
2018-09-27T11:50:17.947Z,1015.76
2018-09-27T11:51:17.881Z,1015.76
2018-09-27T11:52:17.997Z,1015.73
2018-09-27T11:53:17.989Z,1015.76
2018-09-27T11:54:17.868Z,1015.72
2018-09-27T11:55:17.968Z,1015.68
2018-09-27T11:56:17.920Z,1015.67
2018-09-27T11:57:18.002Z,1015.66
2018-09-27T11:58:17.941Z,1015.63
2018-09-27T11:59:17.868Z,1015.64
2018-09-27T12:00:17.945Z,1015.64
2018-09-27T12:01:17.993Z,1015.60
2018-09-27T12:02:17.933Z,1015.59
2018-09-27T12:03:17.991Z,1015.58
2018-09-27T12:04:18.011Z,1015.57
2018-09-27T12:05:17.997Z,1015.54
2018-09-27T12:06:17.948Z,1015.52